createdAt,value
2018-09-09T00:04:32.900Z,11.90
2018-09-09T00:09:42.299Z,12.00
2018-09-09T00:14:46.701Z,12.10
2018-09-09T00:19:50.809Z,12.00
2018-09-09T00:24:54.875Z,12.00
2018-09-09T00:29:58.942Z,12.10
2018-09-09T00:35:03.034Z,12.40
2018-09-09T00:40:07.235Z,12.60
2018-09-09T00:45:11.573Z,12.50
2018-09-09T00:50:21.213Z,11.90
2018-09-09T00:55:25.354Z,11.60
2018-09-09T01:00:34.700Z,11.40
2018-09-09T01:05:39.590Z,11.20
2018-09-09T01:10:44.242Z,11.10
2018-09-09T01:15:48.359Z,11.10
2018-09-09T01:20:52.417Z,11.10
2018-09-09T01:25:56.528Z,11.10
2018-09-09T01:31:00.609Z,11.10
2018-09-09T01:36:04.736Z,11.00
2018-09-09T01:41:08.920Z,11.10
2018-09-09T01:46:12.994Z,11.10
2018-09-09T01:51:17.082Z,11.20
2018-09-09T01:56:21.363Z,11.20
2018-09-09T02:01:25.519Z,11.30
2018-09-09T02:06:29.574Z,11.30
2018-09-09T02:11:33.615Z,11.30
2018-09-09T02:16:37.996Z,11.30
2018-09-09T02:21:42.715Z,11.20
2018-09-09T02:26:46.855Z,11.10
2018-09-09T02:31:51.036Z,11.10
2018-09-09T02:36:55.091Z,11.10
2018-09-09T02:41:59.165Z,11.10
2018-09-09T02:47:03.747Z,11.10
2018-09-09T02:52:07.848Z,11.10
2018-09-09T02:57:11.905Z,11.10
2018-09-09T03:02:16.014Z,11.20
2018-09-09T03:07:20.069Z,11.10
2018-09-09T03:12:24.252Z,11.10
2018-09-09T03:17:28.376Z,11.20
2018-09-09T03:22:32.466Z,11.20
2018-09-09T03:27:36.635Z,11.20
2018-09-09T03:32:40.717Z,11.10
2018-09-09T03:37:44.793Z,11.10
2018-09-09T03:42:49.190Z,11.00
2018-09-09T03:47:53.201Z,11.00
2018-09-09T03:52:57.892Z,11.00
2018-09-09T03:58:02.418Z,11.00
2018-09-09T04:03:07.020Z,11.00
2018-09-09T04:08:11.126Z,10.90
2018-09-09T04:13:15.206Z,10.90
2018-09-09T04:18:19.239Z,10.70
2018-09-09T04:23:23.414Z,10.60
2018-09-09T04:28:27.534Z,10.60
2018-09-09T04:33:31.684Z,10.60
2018-09-09T04:38:35.790Z,10.50
2018-09-09T04:43:39.807Z,10.50
2018-09-09T04:48:43.937Z,10.50
2018-09-09T04:53:48.000Z,10.50
2018-09-09T04:58:52.458Z,10.50
2018-09-09T05:03:56.738Z,10.50
2018-09-09T05:09:00.811Z,10.50
2018-09-09T05:14:05.038Z,10.60
2018-09-09T05:19:09.188Z,10.70
2018-09-09T05:24:13.432Z,10.70
2018-09-09T05:29:17.531Z,10.80
2018-09-09T05:34:21.674Z,10.90
2018-09-09T05:39:26.035Z,11.00
2018-09-09T05:44:31.319Z,11.20
2018-09-09T05:49:36.117Z,11.30
2018-09-09T05:54:40.323Z,11.60
2018-09-09T05:59:44.461Z,11.80
2018-09-09T06:04:49.124Z,12.10
2018-09-09T06:09:53.402Z,12.50
2018-09-09T06:14:57.506Z,12.80
2018-09-09T06:20:01.826Z,13.10
2018-09-09T06:25:06.480Z,13.40
2018-09-09T06:30:10.634Z,13.60
2018-09-09T06:35:14.754Z,13.80
2018-09-09T06:40:18.791Z,14.20
2018-09-09T06:45:23.000Z,14.50
2018-09-09T06:50:27.130Z,14.70
2018-09-09T06:55:31.283Z,14.70
2018-09-09T07:00:35.428Z,14.60
2018-09-09T07:05:39.668Z,14.90
2018-09-09T07:10:43.823Z,15.30
2018-09-09T07:15:47.855Z,15.50
2018-09-09T07:20:52.086Z,15.80
2018-09-09T07:25:56.406Z,16.10
2018-09-09T07:31:00.606Z,16.30
2018-09-09T07:36:04.750Z,16.40
2018-09-09T07:41:09.794Z,16.70
2018-09-09T07:46:13.935Z,17.10
2018-09-09T07:51:24.371Z,17.30
2018-09-09T07:56:28.609Z,17.80
2018-09-09T08:01:32.713Z,17.80
2018-09-09T08:06:36.854Z,17.90
2018-09-09T08:11:42.118Z,17.90
2018-09-09T08:16:46.487Z,18.00
2018-09-09T08:21:50.680Z,18.00
2018-09-09T08:26:54.813Z,17.90
2018-09-09T08:31:59.002Z,17.90
2018-09-09T08:37:03.265Z,18.10
2018-09-09T08:42:08.317Z,18.70
2018-09-09T08:47:19.603Z,18.90
2018-09-09T08:52:24.026Z,18.50
2018-09-09T08:57:28.305Z,18.50
2018-09-09T09:02:32.672Z,18.40
2018-09-09T09:07:37.132Z,18.30
2018-09-09T09:12:41.370Z,18.30
2018-09-09T09:17:45.571Z,18.60
2018-09-09T09:22:49.918Z,19.00
2018-09-09T09:27:57.728Z,19.10
2018-09-09T09:33:06.911Z,19.50
2018-09-09T09:38:12.417Z,19.40
2018-09-09T09:43:19.712Z,19.30
2018-09-09T09:48:24.906Z,19.80
2018-09-09T09:53:29.187Z,19.90
2018-09-09T09:58:33.413Z,20.10
2018-09-09T10:03:38.173Z,20.20
2018-09-09T10:08:42.388Z,20.40
2018-09-09T10:13:46.635Z,20.50
2018-09-09T10:18:50.842Z,21.00
2018-09-09T10:23:56.875Z,21.30
2018-09-09T10:29:02.030Z,21.40
2018-09-09T10:34:06.679Z,21.90
2018-09-09T10:39:12.302Z,22.40
2018-09-09T10:44:16.424Z,22.40
2018-09-09T10:49:20.650Z,22.80
2018-09-09T10:54:24.791Z,23.10
2018-09-09T10:59:29.715Z,23.30
2018-09-09T11:04:33.945Z,23.90
2018-09-09T11:09:38.591Z,23.80
2018-09-09T11:14:42.804Z,24.70
2018-09-09T11:19:46.994Z,26.80
2018-09-09T11:24:51.612Z,28.40
2018-09-09T11:29:56.402Z,29.60
2018-09-09T11:35:00.932Z,29.20
2018-09-09T11:40:05.352Z,29.80
2018-09-09T11:45:09.817Z,30.30
2018-09-09T11:50:14.548Z,31.20
2018-09-09T11:55:18.736Z,31.40
2018-09-09T12:00:22.900Z,32.20
2018-09-09T12:05:27.141Z,31.90
2018-09-09T12:10:31.460Z,31.90
2018-09-09T12:15:36.161Z,32.00
2018-09-09T12:20:41.585Z,32.00
2018-09-09T12:25:45.780Z,33.10
2018-09-09T12:30:50.734Z,32.70
2018-09-09T12:35:55.121Z,32.90
2018-09-09T12:40:59.791Z,33.10
2018-09-09T12:46:13.333Z,33.80
2018-09-09T12:51:17.897Z,33.60
2018-09-09T12:56:22.028Z,33.20
2018-09-09T13:01:26.456Z,32.10
2018-09-09T13:06:30.591Z,32.90
2018-09-09T13:11:34.724Z,33.40
2018-09-09T13:16:38.993Z,30.60
2018-09-09T13:21:43.244Z,28.00
2018-09-09T13:26:47.510Z,27.10
2018-09-09T13:31:51.943Z,26.90
2018-09-09T13:36:56.125Z,26.70
2018-09-09T13:42:00.874Z,26.80
2018-09-09T13:47:05.065Z,28.10
2018-09-09T13:52:09.305Z,28.10
2018-09-09T13:57:13.528Z,27.70
2018-09-09T14:02:17.706Z,27.50
2018-09-09T14:07:23.210Z,26.90
2018-09-09T14:12:27.945Z,26.70
2018-09-09T14:17:36.361Z,26.50
2018-09-09T14:22:44.283Z,26.60
2018-09-09T14:27:49.561Z,26.40
2018-09-09T14:32:53.672Z,26.70
2018-09-09T14:37:57.989Z,27.20
2018-09-09T14:43:02.159Z,28.10
2018-09-09T14:48:06.519Z,29.20
2018-09-09T14:53:11.015Z,31.60
2018-09-09T14:58:15.246Z,32.40
2018-09-09T15:03:19.523Z,31.80
2018-09-09T15:08:23.707Z,29.40
2018-09-09T15:13:31.359Z,28.00
2018-09-09T15:18:35.724Z,27.60
2018-09-09T15:23:40.739Z,29.30
2018-09-09T15:28:44.920Z,33.00
2018-09-09T15:33:49.449Z,33.50
2018-09-09T15:38:53.511Z,31.70
2018-09-09T15:43:58.611Z,31.40
2018-09-09T15:49:02.747Z,32.00
2018-09-09T15:54:10.025Z,29.60
2018-09-09T15:59:14.557Z,26.60
2018-09-09T16:04:18.828Z,25.80
2018-09-09T16:09:23.014Z,26.60
2018-09-09T16:14:27.489Z,28.50
2018-09-09T16:19:31.665Z,30.10
2018-09-09T16:24:35.845Z,31.10
2018-09-09T16:29:40.149Z,29.30
2018-09-09T16:34:45.359Z,26.80
2018-09-09T16:39:49.602Z,25.30
2018-09-09T16:44:54.493Z,24.40
2018-09-09T16:49:58.607Z,23.90
2018-09-09T16:55:03.154Z,23.70
2018-09-09T17:00:07.592Z,23.40
2018-09-09T17:05:12.262Z,23.10
2018-09-09T17:10:16.766Z,22.80
2018-09-09T17:15:20.990Z,22.80
2018-09-09T17:20:25.176Z,22.50
2018-09-09T17:25:30.889Z,22.20
2018-09-09T17:30:35.773Z,21.90
2018-09-09T17:35:40.653Z,21.60
2018-09-09T17:40:44.816Z,21.50
2018-09-09T17:45:49.099Z,21.40
2018-09-09T17:50:53.231Z,21.30
2018-09-09T17:55:58.172Z,20.80
2018-09-09T18:01:03.149Z,20.40
2018-09-09T18:06:07.269Z,20.10
2018-09-09T18:11:12.135Z,19.70
2018-09-09T18:16:16.194Z,19.20
2018-09-09T18:21:20.338Z,18.90
2018-09-09T18:26:24.469Z,18.90
2018-09-09T18:31:28.692Z,18.90
2018-09-09T18:36:33.042Z,18.90
2018-09-09T18:41:38.304Z,18.70
2018-09-09T18:46:42.523Z,18.50
2018-09-09T18:51:46.734Z,18.30
2018-09-09T18:56:51.059Z,18.00
2018-09-09T19:01:55.631Z,17.80
2018-09-09T19:06:59.865Z,17.70
2018-09-09T19:12:04.112Z,17.70
2018-09-09T19:17:08.406Z,17.80
2018-09-09T19:22:13.557Z,17.70
2018-09-09T19:27:17.848Z,17.60
2018-09-09T19:32:22.764Z,17.50
2018-09-09T19:37:27.142Z,17.60
2018-09-09T19:42:35.211Z,17.70
2018-09-09T19:47:39.526Z,17.50
2018-09-09T19:52:43.765Z,17.30
2018-09-09T19:57:48.016Z,17.20
2018-09-09T20:02:52.507Z,17.20
2018-09-09T20:07:57.569Z,17.20
2018-09-09T20:13:02.388Z,17.20
2018-09-09T20:18:07.905Z,17.10
2018-09-09T20:23:12.303Z,17.00
2018-09-09T20:28:16.612Z,16.90
2018-09-09T20:33:21.026Z,17.00
2018-09-09T20:38:25.147Z,16.90
2018-09-09T20:43:29.414Z,16.70
2018-09-09T20:48:33.572Z,16.60
2018-09-09T20:53:37.905Z,16.40
2018-09-09T20:58:42.009Z,16.30
2018-09-09T21:03:46.482Z,16.30
2018-09-09T21:08:50.683Z,16.40
2018-09-09T21:13:55.113Z,16.50
2018-09-09T21:18:59.284Z,16.60
2018-09-09T21:24:03.380Z,16.40
2018-09-09T21:29:07.851Z,16.20
2018-09-09T21:34:12.400Z,16.10
2018-09-09T21:39:16.641Z,15.90
2018-09-09T21:44:20.833Z,15.80
2018-09-09T21:49:31.032Z,15.70
2018-09-09T21:54:35.842Z,15.50
2018-09-09T21:59:42.132Z,15.40
2018-09-09T22:04:46.336Z,15.30
2018-09-09T22:09:50.846Z,15.10
2018-09-09T22:14:55.839Z,15.00
2018-09-09T22:20:00.133Z,15.00
2018-09-09T22:25:05.143Z,15.00
2018-09-09T22:30:09.778Z,14.90
2018-09-09T22:35:13.931Z,14.80
2018-09-09T22:40:18.089Z,14.70
2018-09-09T22:45:22.349Z,14.80
2018-09-09T22:50:26.486Z,14.90
2018-09-09T22:55:30.633Z,15.00
2018-09-09T23:00:34.806Z,15.00
2018-09-09T23:05:45.722Z,14.90
2018-09-09T23:10:50.548Z,14.90
2018-09-09T23:15:56.170Z,14.70
2018-09-09T23:21:01.408Z,14.40
2018-09-09T23:26:05.530Z,14.20
2018-09-09T23:31:09.637Z,14.10
2018-09-09T23:36:14.319Z,13.90
2018-09-09T23:41:19.604Z,13.80
2018-09-09T23:46:23.809Z,13.80
2018-09-09T23:51:27.966Z,13.90
2018-09-09T23:56:32.130Z,13.70
